Time;durP1;ratioP1;P1;durP2;ratioP2;P2;SDS_P1;SDS_P2;PMS_P1;PMS_P2;Temp;Humidity;BMP_temperature;BMP_pressure;BME280_temperature;BME280_humidity;BME280_pressure;Samples;Min_cycle;Max_cycle;Signal;HPM_P1;HPM_P2
2022/05/22 00:01:40;;;;;;;12.32;7.35;;;;;;;15.93;69.50;93206.13;5095011;28;20507;-55
2022/05/22 00:04:06;;;;;;;7.65;6.85;;;;;;;15.82;69.98;93207.47;5110858;28;20081;-52
2022/05/22 00:06:32;;;;;;;12.68;8.13;;;;;;;15.94;69.10;93205.53;5111100;28;20032;-58
2022/05/22 00:08:57;;;;;;;7.53;6.43;;;;;;;15.84;70.17;93204.09;5108207;28;20062;-48
2022/05/22 00:11:22;;;;;;;9.13;6.68;;;;;;;15.86;69.86;93213.34;5090288;28;20028;-49
2022/05/22 00:13:49;;;;;;;8.02;6.40;;;;;;;15.70;70.17;93200.34;5090313;28;20028;-52
2022/05/22 00:18:58;;;;;;;10.43;6.03;;;;;;;15.66;70.50;93206.31;5090631;28;20123;-50
2022/05/22 00:21:24;;;;;;;11.70;6.40;;;;;;;15.76;70.14;93197.97;5094450;28;20028;-49
2022/05/22 00:23:49;;;;;;;6.40;5.55;;;;;;;15.78;70.57;93187.72;5106974;28;20031;-50
2022/05/22 00:26:15;;;;;;;8.77;5.78;;;;;;;15.92;69.83;93194.25;5110498;28;20030;-48
2022/05/22 00:28:41;;;;;;;6.07;5.32;;;;;;;15.88;70.00;93188.41;5110813;28;20028;-53
2022/05/22 00:31:06;;;;;;;6.63;5.60;;;;;;;15.94;69.54;93190.88;5112061;28;20027;-54
2022/05/22 00:33:32;;;;;;;8.40;4.93;;;;;;;15.94;69.50;93190.88;5114980;28;20503;-55
2022/05/22 00:35:57;;;;;;;7.22;4.95;;;;;;;15.99;69.27;93187.06;5115098;27;20028;-55
2022/05/22 00:38:22;;;;;;;13.77;4.88;;;;;;;15.93;69.53;93189.44;5114897;28;20035;-54
2022/05/22 00:40:48;;;;;;;6.72;5.78;;;;;;;15.92;69.51;93190.75;5114578;28;20444;-51
2022/05/22 00:43:34;;;;;;;8.15;5.22;;;;;;;15.91;69.92;93190.03;5103030;28;20031;-49
2022/05/22 00:46:00;;;;;;;7.15;5.30;;;;;;;15.90;69.45;93179.47;5103860;28;20028;-49
2022/05/22 00:48:26;;;;;;;8.85;5.55;;;;;;;15.78;70.17;93189.75;5103319;28;20035;-53
2022/05/22 00:50:57;;;;;;;6.57;5.18;;;;;;;15.66;70.87;93186.84;5105073;28;20050;-52
2022/05/22 00:53:23;;;;;;;5.93;4.18;;;;;;;15.74;70.76;93184.63;5101877;28;20076;-52
2022/05/22 00:55:48;;;;;;;8.15;5.32;;;;;;;15.66;70.80;93181.28;5114706;28;20417;-51
2022/05/22 00:58:18;;;;;;;7.18;5.13;;;;;;;15.60;71.13;93174.56;5096419;28;20044;-52
2022/05/22 01:00:44;;;;;;;7.65;5.20;;;;;;;15.71;70.89;93176.72;5093042;28;20032;-49
2022/05/22 01:03:27;;;;;;;5.18;4.68;;;;;;;15.61;71.41;93178.81;5094096;28;20032;-49
2022/05/22 01:06:03;;;;;;;6.30;5.00;;;;;;;15.70;71.46;93184.34;5094169;28;20048;-54
2022/05/22 01:08:28;;;;;;;6.93;4.93;;;;;;;15.71;70.97;93183.03;5094050;28;20466;-53
2022/05/22 01:11:10;;;;;;;6.55;5.00;;;;;;;15.65;70.99;93176.31;5094036;28;20024;-48
2022/05/22 01:13:39;;;;;;;4.78;4.22;;;;;;;15.72;70.62;93172.63;5092820;28;20390;-51
2022/05/22 01:16:05;;;;;;;8.95;4.55;;;;;;;15.55;71.38;93170.75;5093552;28;20035;-48
2022/05/22 01:18:43;;;;;;;6.00;5.25;;;;;;;15.36;71.81;93164.44;5093525;28;20028;-48
2022/05/22 01:21:18;;;;;;;8.80;5.43;;;;;;;15.49;72.10;93167.53;5093693;28;20028;-52
2022/05/22 01:23:44;;;;;;;5.93;5.43;;;;;;;15.56;71.68;93168.69;5093452;28;20031;-52
2022/05/22 01:26:10;;;;;;;9.23;5.28;;;;;;;15.35;72.47;93165.78;5093697;28;20055;-49
2022/05/22 01:28:36;;;;;;;5.05;4.57;;;;;;;15.37;72.72;93179.84;5093654;28;20091;-52
2022/05/22 01:31:01;;;;;;;7.07;5.60;;;;;;;15.38;73.06;93181.28;5093506;28;20464;-49
2022/05/22 01:33:27;;;;;;;5.70;5.18;;;;;;;15.46;72.48;93171.50;5093005;28;20318;-48
2022/05/22 01:35:53;;;;;;;8.00;5.03;;;;;;;15.39;73.18;93169.59;5093526;28;20377;-52
2022/05/22 01:38:19;;;;;;;7.55;4.80;;;;;;;15.47;72.42;93170.19;5093153;28;20031;-49
2022/05/22 01:40:45;;;;;;;5.00;4.53;;;;;;;15.41;73.00;93174.56;5093462;28;20020;-48
2022/05/22 01:43:10;;;;;;;5.72;4.78;;;;;;;15.39;72.50;93174.41;5093215;28;20031;-48
2022/05/22 01:45:36;;;;;;;7.00;5.40;;;;;;;15.48;71.83;93151.44;5093365;28;20405;-50
2022/05/22 01:48:01;;;;;;;5.30;4.80;;;;;;;15.47;72.39;93172.22;5093039;28;20031;-50
2022/05/22 01:50:27;;;;;;;5.75;5.25;;;;;;;15.48;72.46;93173.69;5106776;28;20059;-53
2022/05/22 01:52:53;;;;;;;6.28;4.68;;;;;;;15.54;72.08;93180.44;5113329;28;20016;-52
2022/05/22 01:55:19;;;;;;;7.53;4.93;;;;;;;15.55;71.91;93179.09;5113228;28;20028;-53
2022/05/22 01:57:44;;;;;;;6.72;4.93;;;;;;;15.47;72.60;93181.31;5112798;28;20035;-52
2022/05/22 02:00:14;;;;;;;6.47;4.93;;;;;;;15.55;72.44;93181.16;5113037;28;20072;-53
2022/05/22 02:02:39;;;;;;;6.07;4.63;;;;;;;15.37;73.21;93174.25;5113333;28;20385;-50
2022/05/22 02:05:05;;;;;;;7.38;4.65;;;;;;;15.27;73.46;93157.56;5113378;28;20035;-50
2022/05/22 02:10:15;;;;;;;8.15;4.70;;;;;;;15.55;72.48;93167.97;5112996;28;20485;-56
2022/05/22 02:12:40;;;;;;;6.30;3.95;;;;;;;15.57;72.42;93172.97;5113245;28;20028;-56
2022/05/22 02:15:07;;;;;;;5.13;4.28;;;;;;;15.35;72.33;93176.91;5113264;28;20531;-56
2022/05/22 02:17:33;;;;;;;5.53;4.03;;;;;;;15.41;72.07;93171.78;5112782;28;20020;-57
2022/05/22 02:19:58;;;;;;;4.43;3.97;;;;;;;15.43;72.26;93172.69;5112813;28;20026;-57
2022/05/22 02:22:24;;;;;;;7.10;4.35;;;;;;;15.52;72.06;93177.50;5112944;28;20106;-58
2022/05/22 02:24:50;;;;;;;6.80;4.18;;;;;;;15.50;71.91;93169.00;5113057;28;20052;-57
2022/05/22 02:27:16;;;;;;;5.25;4.03;;;;;;;15.61;71.55;93171.19;5112938;27;20096;-57
2022/05/22 02:29:41;;;;;;;4.32;3.55;;;;;;;15.61;70.87;93173.97;5111999;28;20072;-57
2022/05/22 02:32:07;;;;;;;4.38;3.97;;;;;;;15.58;71.29;93174.41;5112508;28;20024;-57
2022/05/22 02:34:33;;;;;;;6.47;3.80;;;;;;;15.69;71.51;93176.59;5112484;28;20034;-52
2022/05/22 02:36:59;;;;;;;4.88;3.65;;;;;;;15.52;71.35;93146.91;5112499;28;20485;-50
2022/05/22 02:39:25;;;;;;;4.57;3.63;;;;;;;15.72;69.65;93167.06;5112316;28;20077;-50
2022/05/22 02:41:50;;;;;;;4.15;3.47;;;;;;;15.89;69.80;93175.25;5112360;28;20024;-53
2022/05/22 02:44:16;;;;;;;7.63;4.20;;;;;;;15.70;70.59;93169.72;5111122;28;20509;-54
2022/05/22 02:46:42;;;;;;;6.03;3.85;;;;;;;15.59;68.11;93156.41;5112141;28;20032;-50
2022/05/22 02:49:08;;;;;;;8.38;4.15;;;;;;;15.75;67.00;93180.53;5112495;28;20019;-51
2022/05/22 02:51:34;;;;;;;6.88;3.80;;;;;;;15.72;68.08;93178.22;5112422;28;20408;-51
2022/05/22 02:53:59;;;;;;;4.55;3.83;;;;;;;15.72;67.36;93183.78;5111920;28;20034;-51
2022/05/22 02:56:25;;;;;;;5.40;4.20;;;;;;;15.76;67.19;93178.50;5109569;28;20024;-49
2022/05/22 02:58:52;;;;;;;5.43;3.83;;;;;;;15.88;66.40;93182.13;5091669;28;20044;-49
2022/05/22 03:01:17;;;;;;;4.40;3.67;;;;;;;15.88;66.39;93191.19;5091440;28;20413;-50
2022/05/22 03:03:43;;;;;;;4.25;3.60;;;;;;;16.01;65.59;93192.78;5091490;28;20020;-49
2022/05/22 03:08:52;;;;;;;6.05;3.10;;;;;;;16.17;65.63;93191.13;5105879;28;20035;-50
2022/05/22 03:11:17;;;;;;;4.65;3.42;;;;;;;16.27;63.70;93194.59;5111799;28;20020;-50
2022/05/22 03:13:43;;;;;;;5.90;3.80;;;;;;;16.34;63.75;93190.16;5111993;28;20024;-51
2022/05/22 03:16:08;;;;;;;3.50;3.20;;;;;;;16.43;62.93;93198.50;5111632;28;20031;-52
2022/05/22 03:18:34;;;;;;;6.47;3.38;;;;;;;16.43;61.90;93195.72;5111653;28;20055;-52
2022/05/22 03:20:59;;;;;;;4.10;3.28;;;;;;;16.50;58.44;93175.31;5111511;28;20027;-53
2022/05/22 03:23:25;;;;;;;4.00;3.00;;;;;;;16.56;61.19;93186.16;5111865;28;20034;-49
2022/05/22 03:25:50;;;;;;;3.40;3.10;;;;;;;16.41;62.85;93192.78;5111804;28;20012;-54
2022/05/22 03:28:16;;;;;;;4.65;3.10;;;;;;;16.28;61.21;93187.72;5111450;28;20020;-52
2022/05/22 03:30:42;;;;;;;2.85;2.65;;;;;;;16.54;56.49;93186.75;5111432;28;20039;-51
2022/05/22 03:33:08;;;;;;;4.82;2.75;;;;;;;16.53;60.28;93188.06;5111363;28;20019;-48
2022/05/22 03:35:33;;;;;;;6.30;2.55;;;;;;;16.59;60.66;93196.09;5111646;28;20019;-51
2022/05/22 03:37:59;;;;;;;3.08;2.85;;;;;;;16.45;61.98;93195.84;5111621;27;20020;-47
2022/05/22 03:40:25;;;;;;;2.90;2.70;;;;;;;16.53;61.78;93198.47;5111484;28;20416;-50
2022/05/22 03:42:51;;;;;;;7.38;2.78;;;;;;;16.54;61.80;93186.75;5106379;28;20032;-54
2022/05/22 03:45:16;;;;;;;3.95;2.60;;;;;;;16.58;61.96;93189.06;5093732;28;20023;-54
2022/05/22 03:47:41;;;;;;;2.78;2.42;;;;;;;16.59;61.41;93185.69;5091096;28;20528;-52
2022/05/22 03:50:09;;;;;;;5.32;3.13;;;;;;;16.50;62.66;93185.75;5091003;28;20031;-50
2022/05/22 03:52:40;;;;;;;2.95;2.30;;;;;;;16.47;60.68;93203.59;5090908;28;20072;-50
2022/05/22 03:55:07;;;;;;;4.13;2.63;;;;;;;16.42;58.64;93201.88;5090940;28;20031;-54
2022/05/22 03:57:33;;;;;;;3.78;2.05;;;;;;;16.49;58.56;93203.75;5101813;28;20535;-54
2022/05/22 04:00:02;;;;;;;3.05;2.00;;;;;;;16.65;54.89;93211.16;5110849;28;20521;-52
2022/05/22 04:02:27;;;;;;;3.45;1.77;;;;;;;16.80;53.29;93207.28;5111087;28;20035;-53
2022/05/22 04:04:53;;;;;;;2.75;1.45;;;;;;;16.91;53.06;93209.44;5110584;28;20051;-57
2022/05/22 04:07:18;;;;;;;3.28;1.50;;;;;;;17.05;51.78;93201.25;5110609;28;20446;-57
2022/05/22 04:09:44;;;;;;;1.67;1.20;;;;;;;17.11;50.12;93201.66;5111054;28;20053;-57
2022/05/22 04:12:11;;;;;;;3.50;1.30;;;;;;;17.24;49.92;93201.13;5110771;28;20023;-57
2022/05/22 04:14:37;;;;;;;11.23;1.30;;;;;;;17.40;46.76;93202.19;5111008;28;20024;-56
2022/05/22 04:17:03;;;;;;;2.50;1.35;;;;;;;17.44;48.36;93208.03;5110981;28;20470;-57
2022/05/22 04:19:28;;;;;;;2.28;1.30;;;;;;;17.65;48.47;93210.09;5110879;28;20412;-57
2022/05/22 04:21:53;;;;;;;4.00;1.73;;;;;;;17.78;52.19;93201.16;5110812;28;20024;-53
2022/05/22 04:27:04;;;;;;;3.20;1.33;;;;;;;18.25;47.88;93202.00;5110886;28;20100;-55
2022/05/22 04:29:34;;;;;;;2.15;1.08;;;;;;;18.48;45.58;93204.84;5110975;28;20468;-55
2022/05/22 04:31:59;;;;;;;2.03;1.10;;;;;;;18.72;41.77;93209.09;5110532;28;20027;-55
2022/05/22 04:34:25;;;;;;;3.20;1.10;;;;;;;18.90;40.94;93213.00;5110731;28;20032;-51
2022/05/22 04:36:50;;;;;;;2.17;0.88;;;;;;;19.10;41.81;93224.66;5110869;28;20102;-56
2022/05/22 04:39:16;;;;;;;1.30;1.10;;;;;;;19.14;40.32;93222.09;5110319;28;20028;-56
2022/05/22 04:41:41;;;;;;;3.65;1.08;;;;;;;19.12;42.11;93217.13;5110099;28;20023;-55
2022/05/22 04:44:07;;;;;;;2.45;1.08;;;;;;;19.10;42.51;93216.97;5110369;28;20020;-56
2022/05/22 04:46:32;;;;;;;5.45;1.08;;;;;;;19.11;40.07;93215.63;5110422;28;20028;-56
2022/05/22 04:48:57;;;;;;;1.10;1.00;;;;;;;19.10;39.56;93216.97;5110424;28;20548;-56
2022/05/22 04:51:23;;;;;;;3.30;1.10;;;;;;;19.17;41.63;93215.25;5110267;28;20053;-56
2022/05/22 04:53:49;;;;;;;4.85;2.00;;;;;;;19.24;40.21;93205.88;5110415;28;20023;-56
2022/05/22 04:56:15;;;;;;;5.22;3.22;;;;;;;19.58;39.72;93205.81;5109046;28;20520;-56
2022/05/22 04:58:40;;;;;;;4.45;3.75;;;;;;;20.00;38.64;93201.13;5110352;28;20039;-56
2022/05/22 05:01:07;;;;;;;6.63;3.25;;;;;;;20.26;37.82;93197.00;5110175;28;20496;-56
2022/05/22 05:03:33;;;;;;;6.97;2.65;;;;;;;20.55;36.83;93199.25;5110149;28;20092;-56
2022/05/22 05:06:00;;;;;;;4.43;1.67;;;;;;;20.94;36.78;93197.09;5110644;28;20024;-56
2022/05/22 05:08:27;;;;;;;1.77;1.00;;;;;;;21.31;36.35;93188.47;5110461;28;20047;-53
2022/05/22 05:10:52;;;;;;;4.47;1.00;;;;;;;21.26;34.98;93190.34;5110502;28;20016;-54
2022/05/22 05:13:19;;;;;;;4.65;0.98;;;;;;;21.31;36.56;93192.00;5110165;28;20468;-50
2022/05/22 05:15:45;;;;;;;2.08;1.00;;;;;;;21.19;36.23;93180.16;5110432;28;20480;-50
2022/05/22 05:18:13;;;;;;;3.72;1.00;;;;;;;21.35;36.62;93197.84;5113926;28;20408;-49
2022/05/22 05:20:39;;;;;;;1.65;1.10;;;;;;;21.37;35.21;93195.13;5106794;28;20071;-49
2022/05/22 05:23:05;;;;;;;1.88;1.38;;;;;;;21.28;35.82;93200.97;5108706;28;20059;-46
2022/05/22 05:25:30;;;;;;;3.15;0.98;;;;;;;21.09;35.17;93204.94;5113824;28;20089;-48
2022/05/22 05:27:56;;;;;;;2.42;1.17;;;;;;;20.97;35.43;93204.25;5114051;28;20031;-46
2022/05/22 05:30:21;;;;;;;2.72;1.15;;;;;;;20.89;35.97;93198.97;5114013;27;20485;-46
2022/05/22 05:32:47;;;;;;;1.25;1.13;;;;;;;21.02;36.03;93194.72;5112533;28;20046;-46
2022/05/22 05:35:12;;;;;;;12.25;1.40;;;;;;;20.92;33.85;93203.31;5113501;28;20031;-47
2022/05/22 05:37:39;;;;;;;4.57;1.02;;;;;;;20.92;35.04;93205.44;5105997;28;20060;-48
2022/05/22 05:40:05;;;;;;;3.90;1.30;;;;;;;21.18;35.50;93212.38;5093490;28;20047;-47
2022/05/22 05:42:35;;;;;;;11.93;1.73;;;;;;;21.29;34.02;93205.94;5093395;28;20016;-47
2022/05/22 05:45:02;;;;;;;2.50;1.10;;;;;;;21.46;35.28;93213.13;5093465;28;20604;-53
2022/05/22 05:47:29;;;;;;;1.73;0.95;;;;;;;21.63;34.47;93210.47;5093072;28;20030;-47
2022/05/22 05:49:54;;;;;;;1.33;0.90;;;;;;;21.68;36.17;93217.00;5092989;28;20480;-47
2022/05/22 05:52:20;;;;;;;4.65;1.20;;;;;;;21.73;35.30;93218.66;5092937;28;20027;-48
2022/05/22 05:54:46;;;;;;;2.50;1.10;;;;;;;21.86;34.31;93220.75;5092845;28;20024;-50
2022/05/22 05:57:15;;;;;;;3.17;1.25;;;;;;;22.15;36.01;93220.75;5101466;28;20102;-49
2022/05/22 05:59:41;;;;;;;4.07;1.30;;;;;;;22.52;34.55;93212.66;5113213;28;20047;-53
2022/05/22 06:02:11;;;;;;;1.85;0.90;;;;;;;22.53;33.54;93221.81;5112328;28;20052;-52
2022/05/22 06:04:36;;;;;;;2.17;1.00;;;;;;;22.47;34.09;93229.97;5113345;28;20094;-53
2022/05/22 06:07:02;;;;;;;1.20;1.08;;;;;;;22.46;34.24;93237.69;5112884;28;20019;-57
2022/05/22 06:09:28;;;;;;;1.65;1.20;;;;;;;22.42;34.47;93234.69;5093664;28;20032;-52
2022/05/22 06:11:53;;;;;;;1.20;0.95;;;;;;;22.44;33.78;93234.78;5092914;28;20020;-52
2022/05/22 06:14:19;;;;;;;3.22;1.02;;;;;;;22.44;34.24;93220.72;5092688;28;20075;-54
2022/05/22 06:16:44;;;;;;;4.88;1.13;;;;;;;22.58;33.35;93234.72;5104032;28;20032;-55
2022/05/22 06:19:10;;;;;;;2.03;0.85;;;;;;;22.51;32.74;93236.53;5112844;28;20023;-54
2022/05/22 06:21:35;;;;;;;4.43;1.10;;;;;;;22.63;32.12;93234.28;5112631;28;20019;-54
2022/05/22 06:24:01;;;;;;;5.78;1.25;;;;;;;22.78;32.98;93232.13;5096803;28;20064;-51
2022/05/22 06:26:26;;;;;;;3.13;0.90;;;;;;;23.14;33.55;93228.84;5092246;28;20028;-57
2022/05/22 06:28:52;;;;;;;1.52;0.90;;;;;;;23.56;32.62;93234.91;5091677;28;20024;-56
2022/05/22 06:31:17;;;;;;;2.13;1.10;;;;;;;23.94;31.30;93223.13;5102403;28;20478;-55
2022/05/22 06:33:43;;;;;;;0.82;0.70;;;;;;;23.97;30.62;93221.84;5112881;28;20019;-50
2022/05/22 06:36:12;;;;;;;28.80;2.25;;;;;;;23.53;29.08;93225.63;5099683;28;20031;-51
2022/05/22 06:41:22;;;;;;;5.22;1.30;;;;;;;22.97;31.82;93228.78;5092057;28;20108;-49
2022/05/22 06:43:51;;;;;;;6.65;1.20;;;;;;;22.83;32.53;93209.16;5097407;28;20019;-47
2022/05/22 06:46:35;;;;;;;4.55;1.25;;;;;;;23.23;32.34;93230.66;5112121;28;20102;-48
2022/05/22 06:49:02;;;;;;;5.05;1.08;;;;;;;23.71;31.96;93212.31;5112311;28;20019;-48
2022/05/22 06:51:28;;;;;;;8.02;1.27;;;;;;;24.42;30.13;93215.19;5112233;28;20019;-50
2022/05/22 06:53:53;;;;;;;9.80;1.52;;;;;;;25.21;30.44;93208.31;5112114;28;20401;-49
2022/05/22 06:56:19;;;;;;;5.60;0.80;;;;;;;25.96;30.27;93208.09;5110999;28;20027;-49
2022/05/22 06:58:44;;;;;;;2.58;1.30;;;;;;;26.38;27.38;93215.16;5111890;28;20497;-49
2022/05/22 07:01:10;;;;;;;8.68;1.20;;;;;;;26.11;26.21;93221.38;5102521;28;20028;-50
2022/05/22 07:03:35;;;;;;;2.45;0.80;;;;;;;25.64;27.04;93224.72;5106186;28;20034;-49
2022/05/22 07:06:01;;;;;;;7.57;1.20;;;;;;;25.07;27.09;93221.22;5106809;28;20020;-52
2022/05/22 07:08:27;;;;;;;16.42;1.95;;;;;;;25.32;30.05;93223.53;5093117;28;20031;-49
2022/05/22 07:11:54;;;;;;;5.18;1.10;;;;;;;25.41;29.00;93226.00;5090321;28;20016;-50
2022/05/22 07:13:47;;;;;;;1.38;0.93;;;;;;;25.55;29.50;93222.97;5090687;28;20035;-49
2022/05/22 07:16:13;;;;;;;2.10;0.95;;;;;;;25.58;28.84;93221.66;5090624;28;20024;-52
2022/05/22 07:18:38;;;;;;;7.45;1.23;;;;;;;25.56;28.97;93204.63;5089988;28;20020;-52
2022/05/22 07:21:03;;;;;;;18.73;1.80;;;;;;;25.39;29.60;93225.94;5089496;28;20020;-49
2022/05/22 07:23:29;;;;;;;8.40;1.20;;;;;;;25.22;30.95;93231.66;5088352;28;20020;-49
2022/05/22 07:25:55;;;;;;;2.10;0.90;;;;;;;24.68;29.50;93204.91;5090769;28;20174;-49
2022/05/22 07:28:21;;;;;;;2.47;0.98;;;;;;;24.35;29.20;93222.69;5101568;27;20024;-52
2022/05/22 07:30:46;;;;;;;2.75;1.17;;;;;;;24.00;30.42;93225.47;5099963;28;20012;-50
2022/05/22 07:33:12;;;;;;;6.13;2.00;;;;;;;23.61;31.39;93236.50;5098730;28;20020;-50
2022/05/22 07:35:37;;;;;;;2.97;1.40;;;;;;;23.43;31.69;93230.84;5097114;27;20096;-49
2022/05/22 07:38:03;;;;;;;9.88;1.50;;;;;;;23.31;32.00;93224.66;5101223;28;20110;-51
2022/05/22 07:40:29;;;;;;;21.83;2.63;;;;;;;23.33;33.28;93233.22;5110218;28;20027;-49
2022/05/22 07:42:55;;;;;;;7.30;2.05;;;;;;;23.28;33.43;93235.09;5110427;28;20096;-51
2022/05/22 07:45:22;;;;;;;4.32;1.70;;;;;;;23.29;33.55;93230.19;5110795;28;20504;-49
2022/05/22 07:47:47;;;;;;;4.78;2.25;;;;;;;23.47;33.75;93238.75;5111212;28;20055;-50
2022/05/22 07:50:18;;;;;;;3.60;1.40;;;;;;;23.54;33.75;93232.00;5111841;28;20098;-52
2022/05/22 07:52:45;;;;;;;3.83;1.20;;;;;;;23.78;32.73;93235.84;5111497;28;20027;-52
2022/05/22 07:55:14;;;;;;;2.60;1.25;;;;;;;23.72;31.75;93235.56;5111027;27;20114;-51
2022/05/22 07:57:43;;;;;;;22.48;2.47;;;;;;;23.83;32.80;93235.38;5110946;28;20024;-49
2022/05/22 08:00:10;;;;;;;5.80;1.13;;;;;;;24.06;32.60;93229.28;5110842;28;20476;-49
2022/05/22 08:02:36;;;;;;;4.22;1.30;;;;;;;24.32;32.16;93235.25;5111087;28;20076;-49
2022/05/22 08:05:01;;;;;;;14.23;2.78;;;;;;;24.33;30.92;93233.91;5110966;28;20028;-50
2022/05/22 08:07:27;;;;;;;4.90;2.22;;;;;;;24.30;32.41;93228.81;5110826;28;20031;-50
2022/05/22 08:09:52;;;;;;;8.38;2.42;;;;;;;24.33;32.63;93221.88;5111139;28;20049;-50
2022/05/22 08:12:18;;;;;;;12.55;2.63;;;;;;;24.41;33.51;93222.19;5110756;28;20028;-50
2022/05/22 08:14:46;;;;;;;7.00;1.70;;;;;;;24.69;31.92;93215.53;5111017;28;20023;-50
2022/05/22 08:17:12;;;;;;;12.65;2.90;;;;;;;24.74;31.03;93216.41;5111073;28;20088;-52
2022/05/22 08:19:37;;;;;;;1.42;1.05;;;;;;;24.72;31.50;93210.69;5110663;28;20466;-50
2022/05/22 08:22:03;;;;;;;2.38;1.10;;;;;;;24.63;30.88;93214.59;5110602;28;20031;-49
2022/05/22 08:24:28;;;;;;;4.68;1.30;;;;;;;24.46;31.79;93199.13;5110544;28;20027;-50
2022/05/22 08:26:54;;;;;;;24.10;2.75;;;;;;;24.33;30.81;93199.31;5110641;28;20028;-51
2022/05/22 08:29:20;;;;;;;12.80;1.90;;;;;;;24.16;31.52;93194.41;5110619;28;20031;-51
2022/05/22 08:31:46;;;;;;;5.03;1.98;;;;;;;24.03;34.17;93193.91;5110874;28;20392;-50
2022/05/22 08:34:13;;;;;;;3.17;1.55;;;;;;;23.96;32.88;93189.38;5110561;28;20016;-51
2022/05/22 08:36:39;;;;;;;1.25;1.00;;;;;;;23.87;33.49;93181.94;5110570;28;20027;-49
2022/05/22 08:39:05;;;;;;;1.77;1.10;;;;;;;23.82;33.20;93171.16;5110431;28;20516;-50
2022/05/22 08:41:40;;;;;;;2.92;1.70;;;;;;;24.30;33.40;93184.38;5110445;28;20027;-51
2022/05/22 08:44:13;;;;;;;2.60;1.20;;;;;;;24.62;32.23;93176.44;5110795;28;20389;-50
2022/05/22 08:47:03;;;;;;;2.28;0.93;;;;;;;25.32;31.40;93184.69;5109329;28;20477;-50
2022/05/22 08:49:35;;;;;;;4.07;1.13;;;;;;;25.77;30.87;93186.25;5109530;28;20031;-50
2022/05/22 08:52:30;;;;;;;1.05;0.95;;;;;;;25.71;30.03;93183.22;5112423;28;20024;-50
2022/05/22 08:58:56;;;;;;;13.60;2.85;;;;;;;25.36;31.27;93155.88;5095428;28;20089;-49
2022/05/22 09:01:23;;;;;;;1.23;1.13;;;;;;;25.11;31.33;93176.16;5101410;28;20053;-48
2022/05/22 09:03:55;;;;;;;1.95;0.82;;;;;;;25.12;32.15;93183.97;5104621;28;20485;-50
2022/05/22 09:06:27;;;;;;;1.88;0.90;;;;;;;25.15;32.04;93179.13;5101751;28;20050;-50
2022/05/22 09:08:53;;;;;;;17.02;2.55;;;;;;;25.16;31.41;93172.84;5103073;28;20535;-49
2022/05/22 09:11:28;;;;;;;17.48;2.00;;;;;;;25.21;32.08;93176.53;5103356;28;20027;-49
2022/05/22 09:14:10;;;;;;;4.03;1.10;;;;;;;25.10;32.78;93174.72;5101917;28;20016;-49
2022/05/22 09:17:09;;;;;;;3.20;1.10;;;;;;;25.41;33.06;93166.63;5093673;28;20032;-52
2022/05/22 09:19:40;;;;;;;4.95;1.20;;;;;;;26.73;29.43;93166.72;5099937;28;20038;-50
2022/05/22 09:23:04;;;;;;;12.88;2.05;;;;;;;29.13;28.35;93165.03;5114214;28;20073;-49
2022/05/22 09:25:38;;;;;;;3.67;1.08;;;;;;;30.65;24.78;93165.66;5062089;28;20042;-48
2022/05/22 09:28:09;;;;;;;39.25;2.70;;;;;;;31.86;24.01;93167.94;5114198;28;20420;-50
2022/05/22 09:31:06;;;;;;;1.20;0.90;;;;;;;32.90;23.22;93153.81;5113857;28;20389;-50
2022/05/22 09:33:39;;;;;;;6.68;1.23;;;;;;;33.31;23.02;93151.19;5089232;28;20113;-52
2022/05/22 09:36:28;;;;;;;3.45;0.95;;;;;;;34.98;21.33;93148.56;5111662;28;20501;-49
2022/05/22 09:39:07;;;;;;;4.97;0.65;;;;;;;36.48;19.31;93155.84;5111782;28;20448;-48
2022/05/22 09:41:40;;;;;;;1.77;0.68;;;;;;;35.91;18.96;93143.22;5110224;28;20024;-50
2022/05/22 09:44:35;;;;;;;1.58;0.65;;;;;;;34.79;19.97;93139.31;5111375;27;20492;-48
2022/05/22 09:47:15;;;;;;;26.42;2.40;;;;;;;34.24;21.83;93146.47;5102008;28;20059;-48
2022/05/22 09:49:56;;;;;;;1.27;0.90;;;;;;;34.05;21.41;93142.88;5110425;28;20066;-51
2022/05/22 09:52:29;;;;;;;3.20;1.10;;;;;;;34.06;21.10;93127.13;5111239;28;20046;-51
2022/05/22 09:55:27;;;;;;;6.50;1.15;;;;;;;33.98;20.03;93132.09;5109729;28;20031;-50
2022/05/22 09:58:05;;;;;;;3.05;1.00;;;;;;;33.33;19.72;93120.44;5110297;28;20035;-49
2022/05/22 10:00:41;;;;;;;2.95;1.10;;;;;;;32.35;22.59;93123.41;5111659;28;20027;-49
2022/05/22 10:03:16;;;;;;;3.70;1.17;;;;;;;31.82;21.76;93115.78;5111517;28;20032;-50
2022/05/22 10:06:40;;;;;;;2.45;1.10;;;;;;;31.31;24.04;93117.38;5113490;28;20030;-50
2022/05/22 10:09:30;;;;;;;4.75;1.05;;;;;;;31.93;24.24;93114.44;5090206;28;20054;-49
2022/05/22 10:12:01;;;;;;;3.45;1.17;;;;;;;32.96;21.50;93112.38;5090239;28;20499;-52
2022/05/22 10:14:45;;;;;;;4.20;1.08;;;;;;;33.25;21.21;93113.97;5105451;28;20035;-49
2022/05/22 10:17:13;;;;;;;18.83;1.80;;;;;;;34.09;21.34;93108.47;5095127;28;20032;-52
2022/05/22 10:20:21;;;;;;;1.50;0.88;;;;;;;34.82;20.54;93103.44;5092822;28;20039;-51
2022/05/22 10:23:01;;;;;;;2.80;1.00;;;;;;;35.66;18.77;93099.56;5072287;28;20494;-50
2022/05/22 10:25:32;;;;;;;3.30;0.95;;;;;;;35.98;17.60;93095.81;5091496;28;20028;-51
2022/05/22 10:28:09;;;;;;;2.15;0.98;;;;;;;36.44;17.97;93098.34;5092275;28;20024;-52
2022/05/22 10:30:42;;;;;;;3.13;0.93;;;;;;;36.71;17.06;93101.00;5092567;28;20409;-49
2022/05/22 10:33:20;;;;;;;5.75;1.20;;;;;;;37.29;16.74;93099.66;5091126;28;20016;-53
2022/05/22 10:36:09;;;;;;;3.95;0.68;;;;;;;37.18;16.49;93088.28;5091008;28;20023;-50
2022/05/22 10:38:41;;;;;;;1.40;0.90;;;;;;;37.02;16.78;93073.34;5092408;28;20670;-51
2022/05/22 10:44:09;;;;;;;0.82;0.55;;;;;;;36.72;16.91;93082.28;5092327;28;20039;-51
2022/05/22 10:46:57;;;;;;;5.55;1.25;;;;;;;36.70;18.09;93083.00;5092326;28;20046;-53
2022/05/22 10:49:34;;;;;;;;;;;;;;;35.93;16.91;93076.44;5092910;28;20058;-48
2022/05/22 10:52:02;;;;;;;3.08;1.20;;;;;;;34.57;18.77;93075.50;5092320;28;20001;-52
2022/05/22 10:54:31;;;;;;;7.57;1.50;;;;;;;33.56;20.96;93069.72;5091829;28;20089;-50
2022/05/22 10:57:30;;;;;;;4.53;1.48;;;;;;;33.03;22.03;93071.66;5098217;28;20094;-52
2022/05/22 10:59:56;;;;;;;5.93;1.60;;;;;;;32.62;22.71;93070.00;5099710;28;20049;-53
2022/05/22 11:02:23;;;;;;;5.43;1.83;;;;;;;32.29;23.96;93066.22;5111967;28;20024;-51
2022/05/22 11:04:50;;;;;;;2.10;1.30;;;;;;;32.85;22.37;93052.25;5112281;28;20061;-53
2022/05/22 11:07:28;;;;;;;4.13;1.20;;;;;;;32.29;22.79;93065.50;5110798;28;20120;-52
2022/05/22 11:09:54;;;;;;;5.60;1.60;;;;;;;32.29;22.92;93060.50;5111913;28;20024;-52
2022/05/22 11:12:27;;;;;;;4.07;1.73;;;;;;;31.19;24.16;93066.59;5111915;28;20049;-53
2022/05/22 11:15:08;;;;;;;1.65;1.25;;;;;;;30.52;24.24;93061.44;5111402;28;20104;-51
2022/05/22 11:17:33;;;;;;;23.60;2.63;;;;;;;30.41;24.85;93051.31;5112108;28;20028;-52
2022/05/22 11:20:07;;;;;;;3.10;1.38;;;;;;;29.89;27.15;93065.47;5111975;28;20464;-51
2022/05/22 11:22:58;;;;;;;6.60;1.52;;;;;;;29.21;27.01;93056.47;5110492;28;20083;-55
2022/05/22 11:25:52;;;;;;;19.20;2.30;;;;;;;28.61;28.45;93064.47;5111682;28;20016;-47
2022/05/22 11:28:21;;;;;;;3.47;1.70;;;;;;;28.86;27.33;93065.69;5110652;28;20053;-53
2022/05/22 11:31:15;;;;;;;3.25;1.25;;;;;;;28.86;28.56;93060.00;5111541;28;20020;-49
2022/05/22 11:34:05;;;;;;;3.75;1.40;;;;;;;29.21;27.96;93057.19;5111831;28;20088;-53
2022/05/22 11:36:54;;;;;;;8.90;1.42;;;;;;;29.76;27.27;93053.16;5110288;28;20031;-51
2022/05/22 11:39:41;;;;;;;17.77;2.47;;;;;;;29.26;27.98;93043.72;5110460;28;20118;-48
2022/05/22 11:42:27;;;;;;;4.82;1.25;;;;;;;29.80;27.66;93044.69;5111529;28;20114;-55
2022/05/22 11:45:17;;;;;;;1.98;1.05;;;;;;;29.89;28.68;93037.00;5110423;28;20028;-54
2022/05/22 11:48:05;;;;;;;4.13;1.50;;;;;;;29.58;27.52;93037.91;5111590;28;20028;-52
2022/05/22 11:50:33;;;;;;;2.08;1.55;;;;;;;29.37;28.80;93042.50;5110287;28;20024;-52
2022/05/22 11:53:21;;;;;;;4.75;1.60;;;;;;;28.92;28.05;93029.59;5111412;28;20015;-53
2022/05/22 11:56:02;;;;;;;3.63;1.48;;;;;;;28.74;29.31;93032.06;5111423;28;20027;-55
2022/05/22 11:58:45;;;;;;;2.70;1.20;;;;;;;28.81;29.88;93032.91;5110439;28;20063;-53
2022/05/22 12:01:23;;;;;;;2.35;1.20;;;;;;;28.72;28.47;93037.00;5111288;28;20020;-52
2022/05/22 12:04:20;;;;;;;2.85;1.20;;;;;;;28.57;28.42;93040.94;5110953;28;20509;-53
2022/05/22 12:06:49;;;;;;;5.90;2.25;;;;;;;28.48;30.18;93034.34;5111244;28;20087;-55